Home > Products > Valid Products > MTR

000
SAGM31 PGUM 240655
MTRGUM
METAR PGUM 240654Z 11007KT 10SM CLR 29/24 A2985 RMK AO2 SLP100
T02940244 $





000
SAGM31 PGUM 240555
MTRGUM
METAR PGUM 240554Z 12005KT 10SM FEW020 31/25 A2983 RMK AO2 SLP093
T03060250 10322 20294 55008 $





000
SAGM31 PGUM 240455
MTRGUM
METAR PGUM 240454Z 11008KT 10SM FEW024 31/25 A2983 RMK AO2 SLP092
T03060250 $





000
SAGM31 PGUM 240455
MTRGUM
METAR PGUM 240454Z 11008KT 10SM FEW024 31/25 A2983 RMK AO2 SLP092
T03060250 $





000
SAGM31 PGUM 240411
MTRGUM
SPECI PGUM 240410Z 12007KT 10SM SCT020 31/25 A2983 RMK AO2 $





000
SAGM31 PGUM 240402
MTRGUM
SPECI PGUM 240401Z 11006KT 10SM BKN020 BKN026 31/25 A2983 RMK AO2 $





000
SAGM31 PGUM 240402
MTRGUM
SPECI PGUM 240401Z 11006KT 10SM BKN020 BKN026 31/25 A2983 RMK AO2 $





000
SAGM31 PGUM 240355
MTRGUM
METAR PGUM 240354Z 11006KT 10SM SCT020 31/25 A2983 RMK AO2 SLP093
T03110250 $





000
SAGM31 PGUM 240355
MTRGUM
METAR PGUM 240354Z 11006KT 10SM SCT020 31/25 A2983 RMK AO2 SLP093
T03110250 $





000
SAGM31 PGUM 240343
MTRGUM
SPECI PGUM 240342Z 17006KT 10SM BKN020 BKN029 32/25 A2984 RMK AO2 $





000
SAGM31 PGUM 240343
MTRGUM
SPECI PGUM 240342Z 17006KT 10SM BKN020 BKN029 32/25 A2984 RMK AO2 $





000
SAGM31 PGUM 240257
MTRGUM
METAR PGUM 240254Z COR 14006KT 10SM FEW020 31/24 A2986 RMK AO2
SLP101 60001 T03110244 58018 $





000
SAGM31 PGUM 240257
MTRGUM
METAR PGUM 240254Z COR 14006KT 10SM FEW020 31/24 A2986 RMK AO2
SLP101 60001 T03110244 58018 $





000
SAGM31 PGUM 240255
MTRGUM
METAR PGUM 240254Z 14006KT 10SM FEW020 31/24 A2986 RMK AO2 SLP101
60001 T03110244 58018 $





000
SAGM31 PGUM 240255
MTRGUM
METAR PGUM 240254Z 14006KT 10SM FEW020 31/24 A2986 RMK AO2 SLP101
60001 T03110244 58018 $





000
SAGM31 PGUM 240155
MTRGUM
METAR PGUM 240154Z 15008KT 10SM SCT018 SCT025 SCT031 31/25 A2987 RMK
AO2 SLP107 LTG DSNT NW T03110250 $





000
SAGM31 PGUM 240155
MTRGUM
METAR PGUM 240154Z 15008KT 10SM SCT018 SCT025 SCT031 31/25 A2987 RMK
AO2 SLP107 LTG DSNT NW T03110250 $





000
SAGM31 PGUM 240055
MTRGUM
METAR PGUM 240054Z 11008KT 10SM FEW017 SCT026 BKN043 30/25 A2990 RMK
AO2 SLP115 T03000250 $





000
SAGM31 PGUM 232354
MTRGUM
METAR PGUM 232354Z 13006KT 10SM FEW017 30/25 A2991 RMK AO2 SLP120
T03000250 10300 20256 51009 $





000
SAGM31 PGUM 232308
MTRGUM
SPECI PGUM 232308Z 15006KT 10SM SCT025 30/26 A2990 RMK AO2 $





000
SAGM31 PGUM 232254
MTRGUM
METAR PGUM 232254Z 13006KT 10SM FEW015 BKN025 BKN035 29/26 A2990 RMK
AO2 SLP117 T02890256 $





000
SAGM31 PGUM 232246
MTRGUM
SPECI PGUM 232245Z 15005KT 10SM FEW015 BKN025 BKN035 30/26 A2990 RMK
AO2 P0001 $





000
SAGM31 PGUM 232154
MTRGUM
METAR PGUM 232154Z 00000KT 10SM CLR 29/26 A2990 RMK AO2 SLP117
T02890261 $





000
SAGM31 PGUM 232154
MTRGUM
METAR PGUM 232154Z 00000KT 10SM CLR 29/26 A2990 RMK AO2 SLP117
T02890261 $





000
SAGM31 PGUM 232054
MTRGUM
METAR PGUM 232054Z 13003KT 10SM CLR 26/25 A2988 RMK AO2 SLP112
T02610250 53017 $





000
SAGM31 PGUM 231954
MTRGUM
METAR PGUM 231954Z 00000KT 10SM CLR 26/25 A2984 RMK AO2 SLP098
T02560250 $





000
SAGM31 PGUM 231954
MTRGUM
METAR PGUM 231954Z 00000KT 10SM CLR 26/25 A2984 RMK AO2 SLP098
T02560250 $





000
SAGM31 PGUM 231854
MTRGUM
METAR PGUM 231854Z 00000KT 10SM CLR 26/25 A2983 RMK AO2 SLP094
T02610250 $





000
SAGM31 PGUM 231854
MTRGUM
METAR PGUM 231854Z 00000KT 10SM CLR 26/25 A2983 RMK AO2 SLP094
T02610250 $





000
SAGM31 PGUM 231754
MTRGUM
METAR PGUM 231754Z 00000KT 10SM FEW016 26/25 A2983 RMK AO2 SLP094
60004 T02610250 10278 20261 55007 $





000
SAGM31 PGUM 231754
MTRGUM
METAR PGUM 231754Z 00000KT 10SM FEW016 26/25 A2983 RMK AO2 SLP094
60004 T02610250 10278 20261 55007 $





000
SAGM31 PGUM 231654
MTRGUM
METAR PGUM 231654Z 15004KT 10SM CLR 27/26 A2983 RMK AO2 SLP094
T02670256 $





000
SAGM31 PGUM 231654
MTRGUM
METAR PGUM 231654Z 15004KT 10SM CLR 27/26 A2983 RMK AO2 SLP094
T02670256 $





000
SAGM31 PGUM 231554
MTRGUM
METAR PGUM 231554Z 13005KT 10SM CLR 27/26 A2983 RMK AO2 SLP095
T02670256 $





000
SAGM31 PGUM 231454
MTRGUM
METAR PGUM 231454Z 14003KT 10SM FEW017 27/26 A2985 RMK AO2 SLP101
60004 T02670256 58005 $





000
SAGM31 PGUM 231454
MTRGUM
METAR PGUM 231454Z 14003KT 10SM FEW017 27/26 A2985 RMK AO2 SLP101
60004 T02670256 58005 $





000
SAGM31 PGUM 231355
MTRGUM
METAR PGUM 231354Z 11004KT 10SM FEW015 SCT040 SCT050 27/26 A2988 RMK
AO2 RAE12B35E49 SLP108 P0002 T02720256 403110239





000
SAGM31 PGUM 231343
MTRGUM
SPECI PGUM 231343Z 00000KT 8SM -RA SCT017 BKN030 OVC055 27/26 A2988
RMK AO2 RAE12B35 P0002





000
SAGM31 PGUM 231313
MTRGUM
SPECI PGUM 231313Z 00000KT 10SM BKN015 BKN022 OVC042 28/26 A2988 RMK
AO2 RAE12 P0001





000
SAGM31 PGUM 231303
MTRGUM
SPECI PGUM 231303Z 00000KT 7SM RA BKN013 BKN021 OVC036 28/26 A2988
RMK AO2 P0001





000
SAGM31 PGUM 231254
MTRGUM
METAR PGUM 231254Z 07003KT 10SM -RA SCT011 BKN019 OVC040 27/26 A2987
RMK AO2 RAE14B39 SLP107 P0002 T02720261





000
SAGM31 PGUM 231251
MTRGUM
SPECI PGUM 231251Z 08003KT 9SM -RA BKN013 BKN025 OVC040 27/26 A2987
RMK AO2 RAE14B39 P0002





000
SAGM31 PGUM 231235
MTRGUM
SPECI PGUM 231235Z 00000KT 10SM BKN016 BKN028 BKN110 27/26 A2987 RMK
AO2 RAE14 P0001





000
SAGM31 PGUM 231228
MTRGUM
SPECI PGUM 231228Z 08004KT 10SM SCT016 SCT026 BKN042 27/26 A2988 RMK
AO2 RAE14 P0001





000
SAGM31 PGUM 231216
MTRGUM
SPECI PGUM 231216Z 06004KT 10SM FEW011 SCT016 BKN028 27/26 A2988 RMK
AO2 RAE14 P0001





000
SAGM31 PGUM 231155
MTRGUM
METAR PGUM 231154Z 08004KT 10SM -RA FEW015 SCT035 BKN046 27/26 A2988
RMK AO2 TSE1058RAB1058 SLP110 P0014 60194 70237 T02720261 10294
20239 51015





000
SAGM31 PGUM 231143
MTRGUM
SPECI PGUM 231143Z 05005KT 6SM RA SCT014 BKN030 OVC049 27/26 A2988
RMK AO2 TSE1058RAB1058 P0013





000
SAGM31 PGUM 231059
MTRGUM
SPECI PGUM 231058Z 00000KT 7SM -RA SCT013 BKN018 OVC110 26/25 A2987
RMK AO2 TSE58RAB58 OCNL LTG DSNT SW THRU NW P0000





000
SAGM31 PGUM 231054
MTRGUM
METAR PGUM 231054Z 00000KT 10SM TS FEW013 SCT018CB BKN036 26/25
A2987 RMK AO2 TSB22 SLP106 OCNL LTG SW THRU NW TS VC SW MOV W
T02610250





000
SAGM31 PGUM 231023
MTRGUM
SPECI PGUM 231023Z 06004KT 10SM TS FEW036CB SCT060 26/25 A2986 RMK
AO2 TSB22 TS S MOV W





000
SAGM31 PGUM 230954
MTRGUM
METAR PGUM 230954Z 03004KT 10SM FEW024 OVC050 26/25 A2985 RMK AO2
RAB32E41 SLP102 P0000 T02610250





000
SAGM31 PGUM 230954
MTRGUM
METAR PGUM 230954Z 03004KT 10SM FEW024 OVC050 26/25 A2985 RMK AO2
RAB32E41 SLP102 P0000 T02610250





000
SAGM31 PGUM 230854
MTRGUM
METAR PGUM 230854Z 05008KT 10SM SCT045 BKN055 BKN070 26/24 A2984 RMK
AO2 TSE35RAE51 SLP096 OCNL LTG DSNT SW P0039 60142 T02560244 51014





000
SAGM31 PGUM 230841
MTRGUM
SPECI PGUM 230841Z 06006KT 7SM RA FEW034 BKN070 OVC100 26/24 A2983
RMK AO2 TSE35 OCNL LTG DSNT SW P0039





000
SAGM31 PGUM 230821
MTRGUM
SPECI PGUM 230821Z 06010KT 4SM TSRA FEW010 SCT015CB OVC031 25/23
A2983 RMK AO2 OCNL LTGICCG ALQDS TS N MOV W P0033





000
SAGM31 PGUM 230821
MTRGUM
SPECI PGUM 230821Z 06010KT 4SM TSRA FEW010 SCT015CB OVC031 25/23
A2983 RMK AO2 OCNL LTGICCG ALQDS TS N MOV W P0033





000
SAGM31 PGUM 230812
MTRGUM
SPECI PGUM 230812Z 07009KT 2SM +TSRA FEW010 SCT015CB OVC031 24/23
A2982 RMK AO2 OCNL LTGICCG ALQDS TS N MOV W P0027





000
SAGM31 PGUM 230812
MTRGUM
SPECI PGUM 230812Z 07009KT 2SM +TSRA FEW010 SCT015CB OVC031 24/23
A2982 RMK AO2 OCNL LTGICCG ALQDS TS N MOV W P0027





000
SAGM31 PGUM 230759
MTRGUM
SPECI PGUM 230759Z 09009KT 1SM +TSRA BKN015CB OVC031 24/23 A2983 RMK
AO2 P0012





000
SAGM31 PGUM 230754
MTRGUM
METAR PGUM 230754Z 07014G26KT 3/4SM +TSRA BKN013 BKN018CB OVC028
24/24 A2983 RMK AO2 PK WND 07026/0745 SLP093 FRQ LTG NE THRU SE TS
NE MOV W P0089 T02440239





000
SAGM31 PGUM 230749
MTRGUM
SPECI PGUM 230749Z 07022G26KT 1/2SM +TSRA SCT010 BKN020CB OVC032
26/25 A2982 RMK AO2 PK WND 07026/0745 FRQ LTG E THRU S TS VC E MOV W
P0070





000
SAGM31 PGUM 230742
MTRGUM
SPECI PGUM 230742Z 08021G25KT 2SM +TSRA SCT014 BKN020CB OVC032 26/25
A2982 RMK AO2 OCNL LTG VC E TS VC E MOV W P0031





000
SAGM31 PGUM 230735
MTRGUM
SPECI PGUM 230735Z 09008KT 5SM TSRA FEW007 SCT020CB BKN030 27/26
A2981 RMK AO2 OCNL LTG VC E TS VC E MOV W P0023





000
SAGM31 PGUM 230718
MTRGUM
SPECI PGUM 230718Z 11009KT 5SM TSRA SCT015CB BKN029 OVC040 27/26
A2980 RMK AO2 FRQ LTGICCG SW THRU W TS VC W SW MOV W P0009





000
SAGM31 PGUM 230654
MTRGUM
METAR PGUM 230654Z 09006KT 7SM -TSRA FEW008 SCT015CB OVC034 27/26
A2979 RMK AO2 TSB43RAB20 SLP081 FRQ LTGICCG W TS W MOV W P0014
T02720261





000
SAGM31 PGUM 230645
MTRGUM
SPECI PGUM 230644Z 11007KT 7SM -TSRA SCT008 BKN024CB OVC034 27/26
A2979 RMK AO2 TSB43RAB20 OCNL LTGCG W TS W MOV W P0009





000
SAGM31 PGUM 230640
MTRGUM
SPECI PGUM 230640Z 12006KT 4SM RA SCT008 BKN024 OVC034 27/26 A2979
RMK AO2 RAB20 P0007





000
SAGM31 PGUM 230637
MTRGUM
SPECI PGUM 230637Z 11007KT 2SM +RA SCT008 BKN018 OVC034 27/26 A2979
RMK AO2 RAB20 P0004





000
SAGM31 PGUM 230634
MTRGUM
SPECI PGUM 230634Z 11008KT 3SM RA SCT008 BKN012 OVC034 27/26 A2979
RMK AO2 RAB20 P0002





000
SAGM31 PGUM 230625
MTRGUM
SPECI PGUM 230625Z 12007KT 090V150 3SM RA BR BKN008 BKN018 OVC060
27/26 A2979 RMK AO2 RAB20 P0002





000
SAGM31 PGUM 230618
MTRGUM
SPECI PGUM 230618Z 13005KT 7SM BKN010 BKN020 OVC070 27/26 A2979 RMK
AO2 CIG 005V013





000
SAGM31 PGUM 230554
MTRGUM
METAR PGUM 230554Z 07008KT 10SM FEW019 SCT032 BKN045 29/26 A2978 RMK
AO2 RAB24E39 SLP075 P0000 60011 T02940256 10311 20272 55005





000
SAGM31 PGUM 230554
MTRGUM
METAR PGUM 230554Z 07008KT 10SM FEW019 SCT032 BKN045 29/26 A2978 RMK
AO2 RAB24E39 SLP075 P0000 60011 T02940256 10311 20272 55005





000
SAGM31 PGUM 230540
MTRGUM
SPECI PGUM 230540Z 04007KT 10SM SCT021 SCT027 BKN033 29/26 A2977 RMK
AO2 RAB24E39 P0000





000
SAGM31 PGUM 230524
MTRGUM
SPECI PGUM 230524Z 04009KT 10SM -RA BKN021 BKN027 OVC042 29/25 A2977
RMK AO2 RAB24 P0000





000
SAGM31 PGUM 230454
MTRGUM
METAR PGUM 230454Z 06005KT 10SM FEW020 BKN040 OVC049 29/26 A2977 RMK
AO2 RAE18 SLP073 P0004 T02940256





000
SAGM31 PGUM 230454
MTRGUM
METAR PGUM 230454Z 06005KT 10SM FEW020 BKN040 OVC049 29/26 A2977 RMK
AO2 RAE18 SLP073 P0004 T02940256





000
SAGM31 PGUM 230354
MTRGUM
METAR PGUM 230354Z 04012G18KT 4SM RA FEW021 BKN033 OVC043 29/25
A2978 RMK AO2 RAB51 SLP077 P0001 T02890250





000
SAGM31 PGUM 230354
MTRGUM
METAR PGUM 230354Z 04012G18KT 4SM RA FEW021 BKN033 OVC043 29/25
A2978 RMK AO2 RAB51 SLP077 P0001 T02890250





000
SAGM31 PGUM 230327
MTRGUM
SPECI PGUM 230327Z 05009KT 10SM SCT027 BKN034 31/25 A2978 RMK AO2
P0001





000
SAGM31 PGUM 230308
MTRGUM
METAR PGUM 230254Z COR 06009KT 10SM BKN022 BKN035 OVC048 29/26 A2979
RMK AO2 RAB17E45 SLP080 P0005 60006 T02940256 58020





000
SAGM31 PGUM 230254
MTRGUM
METAR PGUM 230254Z 06009KT 10SM BKN022 BKN035 OVC048 29/26 A2979 RMK
AO2 RAB17E45 SLP080 P0006 60007 T02940256 58020





000
SAGM31 PGUM 230235
MTRGUM
SPECI PGUM 230235Z 04010KT 10SM BKN025 OVC055 29/26 A2980 RMK AO2
RAB17E32 P0006





000
SAGM31 PGUM 230225
MTRGUM
SPECI PGUM 230225Z 04008G18KT 2SM -RA BKN025 OVC055 29/26 A2980 RMK
AO2 RAB17 P0006





000
SAGM31 PGUM 230209
MTRGUM
SPECI PGUM 230209Z 04010KT 10SM BKN025 OVC055 30/24 A2981 RMK AO2





000
SAGM31 PGUM 230209
MTRGUM
SPECI PGUM 230209Z 04010KT 10SM BKN025 OVC055 30/24 A2981 RMK AO2





000
SAGM31 PGUM 230202
MTRGUM
SPECI PGUM 230201Z 04007KT 10SM SCT021 SCT036 OVC055 31/24 A2981 RMK
AO2





000
SAGM31 PGUM 230202
MTRGUM
SPECI PGUM 230201Z 04007KT 10SM SCT021 SCT036 OVC055 31/24 A2981 RMK
AO2





000
SAGM31 PGUM 230154
MTRGUM
METAR PGUM 230154Z 04007KT 10SM BKN021 BKN040 30/24 A2982 RMK AO2
SLP088 T03000244





000
SAGM31 PGUM 230154
MTRGUM
METAR PGUM 230154Z 04007KT 10SM BKN021 BKN040 30/24 A2982 RMK AO2
SLP088 T03000244





000
SAGM31 PGUM 230055
MTRGUM
METAR PGUM 230054Z 05008KT 10SM SCT023 31/24 A2983 RMK AO2 SLP093
T03060244





000
SAGM31 PGUM 230055
MTRGUM
METAR PGUM 230054Z 05008KT 10SM SCT023 31/24 A2983 RMK AO2 SLP093
T03060244





000
SAGM31 PGUM 222355
MTRGUM
METAR PGUM 222354Z 08005KT 10SM FEW020 29/25 A2985 RMK AO2 RAE04
SLP101 P0000 60030 T02890250 10289 20250 58004





000
SAGM31 PGUM 222355
MTRGUM
METAR PGUM 222354Z 08005KT 10SM FEW020 29/25 A2985 RMK AO2 RAE04
SLP101 P0000 60030 T02890250 10289 20250 58004





000
SAGM31 PGUM 222255
MTRGUM
METAR PGUM 222254Z 04008KT 10SM -RA FEW007 SCT022 BKN035 26/24 A2987
RMK AO2 RAE27B51 SLP106 P0016 T02560239





000
SAGM31 PGUM 222255
MTRGUM
METAR PGUM 222254Z 04008KT 10SM -RA FEW007 SCT022 BKN035 26/24 A2987
RMK AO2 RAE27B51 SLP106 P0016 T02560239





000
SAGM31 PGUM 222220
MTRGUM
SPECI PGUM 222219Z 05007KT 5SM -RA BR BKN014 BKN037 OVC055 26/25
A2986 RMK AO2 P0016





000
SAGM31 PGUM 222211
MTRGUM
SPECI PGUM 222210Z 36004KT 2 1/2SM +RA BR BKN037 BKN055 OVC070 26/25
A2987 RMK AO2 VIS 1V4 P0013





000
SAGM31 PGUM 222211
MTRGUM
SPECI PGUM 222210Z 36004KT 2 1/2SM +RA BR BKN037 BKN055 OVC070 26/25
A2987 RMK AO2 VIS 1V4 P0013





000
SAGM31 PGUM 222200
MTRGUM
SPECI PGUM 222159Z 02004KT 1SM +RA BR FEW014 OVC031 26/24 A2986 RMK
AO2 P0006





000
SAGM31 PGUM 222155
MTRGUM
METAR PGUM 222154Z 03007KT 3/4SM +RA BR FEW015 BKN025 BKN030 26/24
A2987 RMK AO2 RAB41 SLP105 P0019 T02560244





000
SAGM31 PGUM 222153
MTRGUM
SPECI PGUM 222152Z 06005KT 3/4SM +RA BR FEW013 BKN024 BKN031 26/24
A2987 RMK AO2 RAB41 P0015





000
SAGM31 PGUM 222146
MTRGUM
SPECI PGUM 222145Z 07010KT 2SM +RA BR FEW013 SCT021 BKN026 26/24
A2987 RMK AO2 VIS 3/4V5 RAB41 P0002





000
SAGM31 PGUM 222055
MTRGUM
METAR PGUM 222054Z 02004KT 10SM FEW050 26/25 A2984 RMK AO2 SLP096
60000 T02610250 53015





000
SAGM31 PGUM 221955
MTRGUM
METAR PGUM 221954Z 01004KT 10SM SCT013 BKN036 OVC045 26/25 A2982 RMK
AO2 SLP089 T02610250





000
SAGM31 PGUM 221941
MTRGUM
SPECI PGUM 221940Z 06003KT 10SM BKN013 BKN039 26/25 A2981 RMK AO2





000
SAGM31 PGUM 221855
MTRGUM
METAR PGUM 221854Z 00000KT 10SM FEW050 26/24 A2979 RMK AO2
RAB1755E10 SLP079 P0000 T02560244





000
SAGM31 PGUM 221805
MTRGUM
SPECI PGUM 221804Z 02005KT 6SM -RA BR FEW014 BKN034 OVC060 26/24
A2979 RMK AO2 RAB1755 P0000





000
SAGM31 PGUM 221755
MTRGUM
METAR PGUM 221754Z 04006KT 8SM FEW014 BKN021 OVC060 26/24 A2980 RMK
AO2 SLP081 60001 T02610244 10278 20256 56011





000
SAGM31 PGUM 221755
MTRGUM
METAR PGUM 221754Z 04006KT 8SM FEW014 BKN021 OVC060 26/24 A2980 RMK
AO2 SLP081 60001 T02610244 10278 20256 56011





000
SAGM31 PGUM 221740
MTRGUM
SPECI PGUM 221739Z 36004KT 10SM FEW009 SCT022 BKN060 26/24 A2979 RMK
AO2





000
SAGM31 PGUM 221740
MTRGUM
SPECI PGUM 221739Z 36004KT 10SM FEW009 SCT022 BKN060 26/24 A2979 RMK
AO2





000
SAGM31 PGUM 221712
MTRGUM
SPECI PGUM 221711Z 01003KT 10SM FEW019 SCT026 26/24 A2980 RMK AO2





000
SAGM31 PGUM 221712
MTRGUM
SPECI PGUM 221711Z 01003KT 10SM FEW019 SCT026 26/24 A2980 RMK AO2





000
SAGM31 PGUM 221655
MTRGUM
METAR PGUM 221654Z 01004KT 10SM FEW017 BKN026 BKN050 26/24 A2980 RMK
AO2 SLP084 T02610244





000
SAGM31 PGUM 221655
MTRGUM
METAR PGUM 221654Z 01004KT 10SM FEW017 BKN026 BKN050 26/24 A2980 RMK
AO2 SLP084 T02610244





000
SAGM31 PGUM 221645
MTRGUM
SPECI PGUM 221644Z 01004KT 10SM SCT019 BKN026 BKN055 26/24 A2980 RMK
AO2





000
SAGM31 PGUM 221645
MTRGUM
SPECI PGUM 221644Z 01004KT 10SM SCT019 BKN026 BKN055 26/24 A2980 RMK
AO2





000
SAGM31 PGUM 221555
MTRGUM
METAR PGUM 221554Z 00000KT 10SM FEW050 SCT070 27/24 A2981 RMK AO2
RAB19E33 SLP086 P0001 T02670239





000
SAGM31 PGUM 221555
MTRGUM
METAR PGUM 221554Z 00000KT 10SM FEW050 SCT070 27/24 A2981 RMK AO2
RAB19E33 SLP086 P0001 T02670239





000
SAGM31 PGUM 221455
MTRGUM
METAR PGUM 221454Z 03003KT 10SM CLR 27/24 A2983 RMK AO2 SLP092
T02670244 58006





000
SAGM31 PGUM 221355
MTRGUM
METAR PGUM 221354Z 06003KT 10SM CLR 27/24 A2983 RMK AO2 SLP094
T02720239 403110239





000
SAGM31 PGUM 221255
MTRGUM
METAR PGUM 221254Z 00000KT 10SM FEW065 27/24 A2984 RMK AO2 SLP097
T02670239





000
SAGM31 PGUM 221155
MTRGUM
METAR PGUM 221154Z 00000KT 10SM CLR 27/24 A2984 RMK AO2 SLP098
T02670244 10311 20261 51010





000
SAGM31 PGUM 221055
MTRGUM
METAR PGUM 221054Z 00000KT 10SM CLR 26/24 A2983 RMK AO2 SLP094
T02610239





000
SAGM31 PGUM 220955
MTRGUM
METAR PGUM 220954Z 07004KT 10SM CLR 28/24 A2983 RMK AO2 SLP093
T02830239





000
SAGM31 PGUM 220955
MTRGUM
METAR PGUM 220954Z 07004KT 10SM CLR 28/24 A2983 RMK AO2 SLP093
T02830239





000
SAGM31 PGUM 220855
MTRGUM
METAR PGUM 220854Z 05003KT 10SM CLR 28/24 A2981 RMK AO2 SLP087
T02830239 51012





000
SAGM31 PGUM 220755
MTRGUM
METAR PGUM 220754Z 08005KT 10SM CLR 28/24 A2980 RMK AO2 SLP083
T02830239





000
SAGM31 PGUM 220655
MTRGUM
METAR PGUM 220654Z 10007KT 10SM CLR 30/23 A2980 RMK AO2 SLP081
T03000233





000
SAGM31 PGUM 220555
MTRGUM
METAR PGUM 220554Z 08008KT 10SM FEW030 31/23 A2978 RMK AO2 SLP076 CB
DSNT W T03060228 10311 20300 56007





000
SAGM31 PGUM 220555
MTRGUM
METAR PGUM 220554Z 08008KT 10SM FEW030 31/23 A2978 RMK AO2 SLP076 CB
DSNT W T03060228 10311 20300 56007





000
SAGM31 PGUM 220455
MTRGUM
METAR PGUM 220454Z 14005KT 10SM FEW030 31/23 A2978 RMK AO2 SLP076
T03060233





000
SAGM31 PGUM 220455
MTRGUM
METAR PGUM 220454Z 14005KT 10SM FEW030 31/23 A2978 RMK AO2 SLP076
T03060233





000
SAGM31 PGUM 220355
MTRGUM
METAR PGUM 220354Z 15005KT 10SM CLR 31/23 A2979 RMK AO2 SLP078
T03060233





000
SAGM31 PGUM 220259
MTRGUM
METAR PGUM 220254Z COR 14005KT 10SM FEW030 31/23 A2980 RMK AO2
SLP083 T03060233 56018





000
SAGM31 PGUM 220255
MTRGUM
METAR PGUM 220254Z 14005KT 10SM CLR 31/23 A2980 RMK AO2 SLP083
T03060233 56018





000
SAGM31 PGUM 220255
MTRGUM
METAR PGUM 220254Z 14005KT 10SM CLR 31/23 A2980 RMK AO2 SLP083
T03060233 56018





000
SAGM31 PGUM 220155
MTRGUM
METAR PGUM 220154Z 10007KT 10SM BKN060 30/23 A2980 RMK AO2 SLP084
T03000233





000
SAGM31 PGUM 220155
MTRGUM
METAR PGUM 220154Z 10007KT 10SM BKN060 30/23 A2980 RMK AO2 SLP084
T03000233





000
SAGM31 PGUM 220055
MTRGUM
METAR PGUM 220054Z 09010KT 10SM FEW023 SCT065 31/24 A2983 RMK AO2
SLP094 T03060239





000
SAGM31 PGUM 212355
MTRGUM
METAR PGUM 212354Z 10008KT 10SM FEW020 30/24 A2985 RMK AO2 SLP101
T03000239 10306 20239 51008





000
SAGM31 PGUM 212255
MTRGUM
METAR PGUM 212254Z 09006KT 10SM CLR 29/24 A2985 RMK AO2 SLP099
T02890239





000
SAGM31 PGUM 212255
MTRGUM
METAR PGUM 212254Z 09006KT 10SM CLR 29/24 A2985 RMK AO2 SLP099
T02890239





000
SAGM31 PGUM 212155
MTRGUM
METAR PGUM 212154Z 09004KT 10SM FEW020 28/23 A2984 RMK AO2 SLP097
T02830233





000
SAGM31 PGUM 212155
MTRGUM
METAR PGUM 212154Z 09004KT 10SM FEW020 28/23 A2984 RMK AO2 SLP097
T02830233





000
SAGM31 PGUM 212055
MTRGUM
METAR PGUM 212054Z 07003KT 10SM FEW020 26/23 A2983 RMK AO2 SLP093
T02610233 53012





000
SAGM31 PGUM 211955
MTRGUM
METAR PGUM 211954Z 00000KT 10SM FEW020 25/23 A2982 RMK AO2 SLP088
T02500228





000
SAGM31 PGUM 211855
MTRGUM
METAR PGUM 211854Z 04004KT 10SM CLR 24/22 A2980 RMK AO2 SLP082
T02440222





000
SAGM31 PGUM 211755
MTRGUM
METAR PGUM 211754Z 06003KT 10SM CLR 25/23 A2980 RMK AO2 SLP082
T02500228 10272 20250 56008





000
SAGM31 PGUM 211655
MTRGUM
METAR PGUM 211654Z 05003KT 10SM CLR 25/23 A2980 RMK AO2 SLP083
T02500228





000
SAGM31 PGUM 211655
MTRGUM
METAR PGUM 211654Z 05003KT 10SM CLR 25/23 A2980 RMK AO2 SLP083
T02500228





000
SAGM31 PGUM 211555
MTRGUM
METAR PGUM 211554Z 05004KT 10SM CLR 25/23 A2981 RMK AO2 SLP086
T02500233





000
SAGM31 PGUM 211555
MTRGUM
METAR PGUM 211554Z 05004KT 10SM CLR 25/23 A2981 RMK AO2 SLP086
T02500233




000
SAGM31 PGUM 211555
MTRGUM
METAR PGUM 211554Z 05004KT 10SM CLR 25/23 A2981 RMK AO2 SLP086
T02500233




000
SAGM31 PGUM 211555
MTRGUM
METAR PGUM 211554Z 05004KT 10SM CLR 25/23 A2981 RMK AO2 SLP086
T02500233





000
SAGM31 PGUM 211455
MTRGUM
METAR PGUM 211454Z 06003KT 10SM CLR 26/23 A2982 RMK AO2 SLP090
T02610233 58014




000
SAGM31 PGUM 211455
MTRGUM
METAR PGUM 211454Z 06003KT 10SM CLR 26/23 A2982 RMK AO2 SLP090
T02610233 58014





000
SAGM31 PGUM 211355
MTRGUM
METAR PGUM 211354Z 07003KT 10SM CLR 27/23 A2984 RMK AO2 SLP097
T02670233 403220250




000
SAGM31 PGUM 211355
MTRGUM
METAR PGUM 211354Z 07003KT 10SM CLR 27/23 A2984 RMK AO2 SLP097
T02670233 403220250





000
SAGM31 PGUM 211255
MTRGUM
METAR PGUM 211254Z 00000KT 10SM CLR 26/23 A2986 RMK AO2 SLP103
T02610233





000
SAGM31 PGUM 211255
MTRGUM
METAR PGUM 211254Z 00000KT 10SM CLR 26/23 A2986 RMK AO2 SLP103
T02610233




000
SAGM31 PGUM 211157
MTRGUM
METAR PGUM 211154Z COR 04003KT 10SM FEW020 26/24 A2986 RMK AO2
SLP104 70006 T02610239 10306 20256 51013




000
SAGM31 PGUM 211157
MTRGUM
METAR PGUM 211154Z COR 04003KT 10SM FEW020 26/24 A2986 RMK AO2
SLP104 70006 T02610239 10306 20256 51013





000
SAGM31 PGUM 211157
MTRGUM
METAR PGUM 211154Z COR 04003KT 10SM FEW020 26/24 A2986 RMK AO2
SLP104 70006 T02610239 10306 20256 51013




000
SAGM31 PGUM 211157
MTRGUM
METAR PGUM 211154Z COR 04003KT 10SM FEW020 26/24 A2986 RMK AO2
SLP104 70006 T02610239 10306 20256 51013





000
SAGM31 PGUM 211155
MTRGUM
METAR PGUM 211154Z 04003KT 10SM CLR 26/24 A2986 RMK AO2 SLP104 60001
70008 T02610239 10306 20256 51013




000
SAGM31 PGUM 211155
MTRGUM
METAR PGUM 211154Z 04003KT 10SM CLR 26/24 A2986 RMK AO2 SLP104 60001
70008 T02610239 10306 20256 51013





000
SAGM31 PGUM 211155
MTRGUM
METAR PGUM 211154Z 04003KT 10SM CLR 26/24 A2986 RMK AO2 SLP104 60001
70008 T02610239 10306 20256 51013




000
SAGM31 PGUM 211155
MTRGUM
METAR PGUM 211154Z 04003KT 10SM CLR 26/24 A2986 RMK AO2 SLP104 60001
70008 T02610239 10306 20256 51013





000
SAGM31 PGUM 211055
MTRGUM
METAR PGUM 211054Z 05004KT 10SM CLR 27/24 A2986 RMK AO2 SLP102
T02720239




000
SAGM31 PGUM 211055
MTRGUM
METAR PGUM 211054Z 05004KT 10SM CLR 27/24 A2986 RMK AO2 SLP102
T02720239




000
SAGM31 PGUM 211055
MTRGUM
METAR PGUM 211054Z 05004KT 10SM CLR 27/24 A2986 RMK AO2 SLP102
T02720239





000
SAGM31 PGUM 211055
MTRGUM
METAR PGUM 211054Z 05004KT 10SM CLR 27/24 A2986 RMK AO2 SLP102
T02720239





000
SAGM31 PGUM 210955
MTRGUM
METAR PGUM 210954Z 05003KT 10SM CLR 27/24 A2984 RMK AO2 SLP098
T02720239




000
SAGM31 PGUM 210955
MTRGUM
METAR PGUM 210954Z 05003KT 10SM CLR 27/24 A2984 RMK AO2 SLP098
T02720239





000
SAGM31 PGUM 210955
MTRGUM
METAR PGUM 210954Z 05003KT 10SM CLR 27/24 A2984 RMK AO2 SLP098
T02720239





000
SAGM31 PGUM 210955
MTRGUM
METAR PGUM 210954Z 05003KT 10SM CLR 27/24 A2984 RMK AO2 SLP098
T02720239




000
SAGM31 PGUM 210855
MTRGUM
METAR PGUM 210854Z 06004KT 10SM CLR 28/23 A2982 RMK AO2 SLP091 60001
T02780233 53010





000
SAGM31 PGUM 210855
MTRGUM
METAR PGUM 210854Z 06004KT 10SM CLR 28/23 A2982 RMK AO2 SLP091 60001
T02780233 53010




000
SAGM31 PGUM 210755
MTRGUM
METAR PGUM 210754Z 05005KT 10SM CLR 29/23 A2981 RMK AO2 SLP086
T02890228





000
SAGM31 PGUM 210755
MTRGUM
METAR PGUM 210754Z 05005KT 10SM CLR 29/23 A2981 RMK AO2 SLP086
T02890228




    US Dept of Commerce
    National Oceanic and Atmospheric Administration
    National Weather Service
    1325 East West Highway
    Silver Spring, MD 20910
    Page Author: NWS Internet Services Team
Disclaimer
Information Quality
Credits
Glossary
Privacy Policy
Freedom of Information Act (FOIA)
About Us
Career Opportunities